sensor_id;sensor_type;location;lat;lon;timestamp;P1;durP1;ratioP1;P2;durP2;ratioP2
72479;SDS011;60503;43.540;-5.510;2023-04-06T00:01:38;6.22;;;3.30;;
72479;SDS011;60503;43.540;-5.510;2023-04-06T00:04:04;5.78;;;3.15;;
72479;SDS011;60503;43.540;-5.510;2023-04-06T00:06:31;6.53;;;3.17;;
72479;SDS011;60503;43.540;-5.510;2023-04-06T00:08:57;7.75;;;3.60;;
72479;SDS011;60503;43.540;-5.510;2023-04-06T00:11:22;4.25;;;3.10;;
72479;SDS011;60503;43.540;-5.510;2023-04-06T00:13:48;6.35;;;3.47;;
72479;SDS011;60503;43.540;-5.510;2023-04-06T00:16:13;8.30;;;3.50;;
72479;SDS011;60503;43.540;-5.510;2023-04-06T00:18:39;5.63;;;3.30;;
72479;SDS011;60503;43.540;-5.510;2023-04-06T00:21:05;5.10;;;2.92;;
72479;SDS011;60503;43.540;-5.510;2023-04-06T00:23:31;6.05;;;3.05;;
72479;SDS011;60503;43.540;-5.510;2023-04-06T00:25:56;4.95;;;2.95;;
72479;SDS011;60503;43.540;-5.510;2023-04-06T00:28:22;6.20;;;3.03;;
72479;SDS011;60503;43.540;-5.510;2023-04-06T00:30:51;11.07;;;3.40;;
72479;SDS011;60503;43.540;-5.510;2023-04-06T00:33:21;13.10;;;3.25;;
72479;SDS011;60503;43.540;-5.510;2023-04-06T00:35:47;6.07;;;2.90;;
72479;SDS011;60503;43.540;-5.510;2023-04-06T00:38:13;4.13;;;3.03;;
72479;SDS011;60503;43.540;-5.510;2023-04-06T00:40:40;5.85;;;3.08;;
72479;SDS011;60503;43.540;-5.510;2023-04-06T00:46:27;4.80;;;2.75;;
72479;SDS011;60503;43.540;-5.510;2023-04-06T00:48:53;8.07;;;3.10;;
72479;SDS011;60503;43.540;-5.510;2023-04-06T00:51:19;8.77;;;3.85;;
72479;SDS011;60503;43.540;-5.510;2023-04-06T00:53:44;6.28;;;3.47;;
72479;SDS011;60503;43.540;-5.510;2023-04-06T00:56:11;8.15;;;3.15;;
72479;SDS011;60503;43.540;-5.510;2023-04-06T00:58:36;5.95;;;3.13;;
72479;SDS011;60503;43.540;-5.510;2023-04-06T01:01:03;5.22;;;3.20;;
72479;SDS011;60503;43.540;-5.510;2023-04-06T01:03:29;5.57;;;3.03;;
72479;SDS011;60503;43.540;-5.510;2023-04-06T01:05:55;6.97;;;3.33;;
72479;SDS011;60503;43.540;-5.510;2023-04-06T01:08:23;10.10;;;3.65;;
72479;SDS011;60503;43.540;-5.510;2023-04-06T01:10:49;6.72;;;3.45;;
72479;SDS011;60503;43.540;-5.510;2023-04-06T01:13:15;7.47;;;3.10;;
72479;SDS011;60503;43.540;-5.510;2023-04-06T01:15:41;5.85;;;2.72;;
72479;SDS011;60503;43.540;-5.510;2023-04-06T01:18:10;8.52;;;3.17;;
72479;SDS011;60503;43.540;-5.510;2023-04-06T01:20:36;4.65;;;3.35;;
72479;SDS011;60503;43.540;-5.510;2023-04-06T01:23:01;5.80;;;3.40;;
72479;SDS011;60503;43.540;-5.510;2023-04-06T01:25:27;8.20;;;3.92;;
72479;SDS011;60503;43.540;-5.510;2023-04-06T01:27:52;6.97;;;3.45;;
72479;SDS011;60503;43.540;-5.510;2023-04-06T01:30:18;5.35;;;3.38;;
72479;SDS011;60503;43.540;-5.510;2023-04-06T01:32:44;8.98;;;3.50;;
72479;SDS011;60503;43.540;-5.510;2023-04-06T01:35:10;8.13;;;3.42;;
72479;SDS011;60503;43.540;-5.510;2023-04-06T01:37:36;7.47;;;3.17;;
72479;SDS011;60503;43.540;-5.510;2023-04-06T01:40:02;6.13;;;3.53;;
72479;SDS011;60503;43.540;-5.510;2023-04-06T01:42:27;9.15;;;3.55;;
72479;SDS011;60503;43.540;-5.510;2023-04-06T01:44:53;7.97;;;4.03;;
72479;SDS011;60503;43.540;-5.510;2023-04-06T01:47:19;7.18;;;3.70;;
72479;SDS011;60503;43.540;-5.510;2023-04-06T01:49:45;6.75;;;3.70;;
72479;SDS011;60503;43.540;-5.510;2023-04-06T01:52:10;8.60;;;3.78;;
72479;SDS011;60503;43.540;-5.510;2023-04-06T01:54:36;5.53;;;3.55;;
72479;SDS011;60503;43.540;-5.510;2023-04-06T01:57:01;4.15;;;3.50;;
72479;SDS011;60503;43.540;-5.510;2023-04-06T01:59:27;7.30;;;3.70;;
72479;SDS011;60503;43.540;-5.510;2023-04-06T02:01:53;7.97;;;3.50;;
72479;SDS011;60503;43.540;-5.510;2023-04-06T02:04:18;6.85;;;2.90;;
72479;SDS011;60503;43.540;-5.510;2023-04-06T02:06:44;7.00;;;2.60;;
72479;SDS011;60503;43.540;-5.510;2023-04-06T02:09:09;8.20;;;2.85;;
72479;SDS011;60503;43.540;-5.510;2023-04-06T02:11:35;4.68;;;2.53;;
72479;SDS011;60503;43.540;-5.510;2023-04-06T02:14:01;7.35;;;2.78;;
72479;SDS011;60503;43.540;-5.510;2023-04-06T02:16:26;5.88;;;2.80;;
72479;SDS011;60503;43.540;-5.510;2023-04-06T02:18:52;10.45;;;4.57;;
72479;SDS011;60503;43.540;-5.510;2023-04-06T02:21:17;10.18;;;4.38;;
72479;SDS011;60503;43.540;-5.510;2023-04-06T02:23:45;9.95;;;4.72;;
72479;SDS011;60503;43.540;-5.510;2023-04-06T02:26:12;8.07;;;5.00;;
72479;SDS011;60503;43.540;-5.510;2023-04-06T02:28:37;8.50;;;4.97;;
72479;SDS011;60503;43.540;-5.510;2023-04-06T02:31:03;12.40;;;5.45;;
72479;SDS011;60503;43.540;-5.510;2023-04-06T02:33:29;10.75;;;4.50;;
72479;SDS011;60503;43.540;-5.510;2023-04-06T02:35:54;10.23;;;4.75;;
72479;SDS011;60503;43.540;-5.510;2023-04-06T02:38:20;11.13;;;4.30;;
72479;SDS011;60503;43.540;-5.510;2023-04-06T02:40:45;9.05;;;4.43;;
72479;SDS011;60503;43.540;-5.510;2023-04-06T02:43:11;10.00;;;4.40;;
72479;SDS011;60503;43.540;-5.510;2023-04-06T02:45:37;7.15;;;4.05;;
72479;SDS011;60503;43.540;-5.510;2023-04-06T02:48:02;5.55;;;3.22;;
72479;SDS011;60503;43.540;-5.510;2023-04-06T02:50:28;6.65;;;3.47;;
72479;SDS011;60503;43.540;-5.510;2023-04-06T02:52:54;10.73;;;3.88;;
72479;SDS011;60503;43.540;-5.510;2023-04-06T02:55:19;5.25;;;3.42;;
72479;SDS011;60503;43.540;-5.510;2023-04-06T02:57:45;8.10;;;3.63;;
72479;SDS011;60503;43.540;-5.510;2023-04-06T03:00:11;5.63;;;2.78;;
72479;SDS011;60503;43.540;-5.510;2023-04-06T03:02:37;7.05;;;3.20;;
72479;SDS011;60503;43.540;-5.510;2023-04-06T03:05:03;4.45;;;3.05;;
72479;SDS011;60503;43.540;-5.510;2023-04-06T03:07:29;4.95;;;2.72;;
72479;SDS011;60503;43.540;-5.510;2023-04-06T03:09:55;6.55;;;2.90;;
72479;SDS011;60503;43.540;-5.510;2023-04-06T03:12:20;7.00;;;3.20;;
72479;SDS011;60503;43.540;-5.510;2023-04-06T03:14:46;6.28;;;2.80;;
72479;SDS011;60503;43.540;-5.510;2023-04-06T03:17:11;5.47;;;2.72;;
72479;SDS011;60503;43.540;-5.510;2023-04-06T03:19:37;4.72;;;3.20;;
72479;SDS011;60503;43.540;-5.510;2023-04-06T03:22:03;6.50;;;3.13;;
72479;SDS011;60503;43.540;-5.510;2023-04-06T03:24:28;4.35;;;2.80;;
72479;SDS011;60503;43.540;-5.510;2023-04-06T03:26:54;5.85;;;3.05;;
72479;SDS011;60503;43.540;-5.510;2023-04-06T03:29:20;7.75;;;3.25;;
72479;SDS011;60503;43.540;-5.510;2023-04-06T03:31:45;3.92;;;3.10;;
72479;SDS011;60503;43.540;-5.510;2023-04-06T03:34:11;7.60;;;3.20;;
72479;SDS011;60503;43.540;-5.510;2023-04-06T03:36:36;6.07;;;3.08;;
72479;SDS011;60503;43.540;-5.510;2023-04-06T03:39:02;6.85;;;3.28;;
72479;SDS011;60503;43.540;-5.510;2023-04-06T03:44:49;6.65;;;3.35;;
72479;SDS011;60503;43.540;-5.510;2023-04-06T03:47:15;6.47;;;3.17;;
72479;SDS011;60503;43.540;-5.510;2023-04-06T03:49:40;7.80;;;3.30;;
72479;SDS011;60503;43.540;-5.510;2023-04-06T03:52:06;8.15;;;3.30;;
72479;SDS011;60503;43.540;-5.510;2023-04-06T03:54:32;4.35;;;3.10;;
72479;SDS011;60503;43.540;-5.510;2023-04-06T03:56:57;5.28;;;3.03;;
72479;SDS011;60503;43.540;-5.510;2023-04-06T03:59:23;6.75;;;2.90;;
72479;SDS011;60503;43.540;-5.510;2023-04-06T04:01:48;4.93;;;2.70;;
72479;SDS011;60503;43.540;-5.510;2023-04-06T04:04:14;7.03;;;3.30;;
72479;SDS011;60503;43.540;-5.510;2023-04-06T04:06:40;7.55;;;3.38;;
72479;SDS011;60503;43.540;-5.510;2023-04-06T04:09:06;4.57;;;2.72;;
72479;SDS011;60503;43.540;-5.510;2023-04-06T04:11:31;7.72;;;2.70;;
72479;SDS011;60503;43.540;-5.510;2023-04-06T04:13:57;9.95;;;3.60;;
72479;SDS011;60503;43.540;-5.510;2023-04-06T04:16:22;4.25;;;2.65;;
72479;SDS011;60503;43.540;-5.510;2023-04-06T04:18:48;6.05;;;2.72;;
72479;SDS011;60503;43.540;-5.510;2023-04-06T04:21:14;8.00;;;3.17;;
72479;SDS011;60503;43.540;-5.510;2023-04-06T04:23:40;4.10;;;2.90;;
72479;SDS011;60503;43.540;-5.510;2023-04-06T04:26:06;5.35;;;2.97;;
72479;SDS011;60503;43.540;-5.510;2023-04-06T04:28:32;4.97;;;3.17;;
72479;SDS011;60503;43.540;-5.510;2023-04-06T04:30:57;13.52;;;3.58;;
72479;SDS011;60503;43.540;-5.510;2023-04-06T04:33:23;6.05;;;3.58;;
72479;SDS011;60503;43.540;-5.510;2023-04-06T04:35:49;8.18;;;4.00;;
72479;SDS011;60503;43.540;-5.510;2023-04-06T04:38:14;7.68;;;4.00;;
72479;SDS011;60503;43.540;-5.510;2023-04-06T04:40:40;9.57;;;4.15;;
72479;SDS011;60503;43.540;-5.510;2023-04-06T04:43:06;11.18;;;5.13;;
72479;SDS011;60503;43.540;-5.510;2023-04-06T04:45:31;8.65;;;5.28;;
72479;SDS011;60503;43.540;-5.510;2023-04-06T04:47:57;11.55;;;5.32;;
72479;SDS011;60503;43.540;-5.510;2023-04-06T04:50:22;10.68;;;5.03;;
72479;SDS011;60503;43.540;-5.510;2023-04-06T04:52:48;9.07;;;5.28;;
72479;SDS011;60503;43.540;-5.510;2023-04-06T04:55:14;8.20;;;4.45;;
72479;SDS011;60503;43.540;-5.510;2023-04-06T04:57:40;11.02;;;4.28;;
72479;SDS011;60503;43.540;-5.510;2023-04-06T05:00:05;6.28;;;3.95;;
72479;SDS011;60503;43.540;-5.510;2023-04-06T05:02:31;4.72;;;3.40;;
72479;SDS011;60503;43.540;-5.510;2023-04-06T05:04:57;4.03;;;3.05;;
72479;SDS011;60503;43.540;-5.510;2023-04-06T05:07:23;5.50;;;3.05;;
72479;SDS011;60503;43.540;-5.510;2023-04-06T05:09:48;4.55;;;2.72;;
72479;SDS011;60503;43.540;-5.510;2023-04-06T05:12:14;7.57;;;3.70;;
72479;SDS011;60503;43.540;-5.510;2023-04-06T05:14:40;9.88;;;3.60;;
72479;SDS011;60503;43.540;-5.510;2023-04-06T05:17:05;8.63;;;3.17;;
72479;SDS011;60503;43.540;-5.510;2023-04-06T05:19:31;7.15;;;2.70;;
72479;SDS011;60503;43.540;-5.510;2023-04-06T05:21:56;3.85;;;2.92;;
72479;SDS011;60503;43.540;-5.510;2023-04-06T05:24:22;6.43;;;2.75;;
72479;SDS011;60503;43.540;-5.510;2023-04-06T05:26:48;5.35;;;3.00;;
72479;SDS011;60503;43.540;-5.510;2023-04-06T05:29:13;5.40;;;2.90;;
72479;SDS011;60503;43.540;-5.510;2023-04-06T05:31:40;6.22;;;2.92;;
72479;SDS011;60503;43.540;-5.510;2023-04-06T05:34:05;5.60;;;2.83;;
72479;SDS011;60503;43.540;-5.510;2023-04-06T05:36:31;5.53;;;2.70;;
72479;SDS011;60503;43.540;-5.510;2023-04-06T05:38:57;4.72;;;2.60;;
72479;SDS011;60503;43.540;-5.510;2023-04-06T05:41:23;4.97;;;2.28;;
72479;SDS011;60503;43.540;-5.510;2023-04-06T05:43:49;5.00;;;2.25;;
72479;SDS011;60503;43.540;-5.510;2023-04-06T05:46:15;6.00;;;2.35;;
72479;SDS011;60503;43.540;-5.510;2023-04-06T05:48:41;8.85;;;2.47;;
72479;SDS011;60503;43.540;-5.510;2023-04-06T05:51:06;8.35;;;2.67;;
72479;SDS011;60503;43.540;-5.510;2023-04-06T05:53:32;6.45;;;2.50;;
72479;SDS011;60503;43.540;-5.510;2023-04-06T05:56:01;6.10;;;2.80;;
72479;SDS011;60503;43.540;-5.510;2023-04-06T05:58:27;4.43;;;2.50;;
72479;SDS011;60503;43.540;-5.510;2023-04-06T06:01:00;8.52;;;3.15;;
72479;SDS011;60503;43.540;-5.510;2023-04-06T06:03:26;4.45;;;3.00;;
72479;SDS011;60503;43.540;-5.510;2023-04-06T06:05:52;3.65;;;2.38;;
72479;SDS011;60503;43.540;-5.510;2023-04-06T06:08:17;6.47;;;2.95;;
72479;SDS011;60503;43.540;-5.510;2023-04-06T06:10:43;8.18;;;3.72;;
72479;SDS011;60503;43.540;-5.510;2023-04-06T06:13:09;9.32;;;3.53;;
72479;SDS011;60503;43.540;-5.510;2023-04-06T06:15:34;7.13;;;3.47;;
72479;SDS011;60503;43.540;-5.510;2023-04-06T06:18:00;5.53;;;3.25;;
72479;SDS011;60503;43.540;-5.510;2023-04-06T06:20:26;5.88;;;2.95;;
72479;SDS011;60503;43.540;-5.510;2023-04-06T06:22:52;7.78;;;2.83;;
72479;SDS011;60503;43.540;-5.510;2023-04-06T06:25:18;4.53;;;2.47;;
72479;SDS011;60503;43.540;-5.510;2023-04-06T06:27:43;6.15;;;3.20;;
72479;SDS011;60503;43.540;-5.510;2023-04-06T06:30:09;8.88;;;3.10;;
72479;SDS011;60503;43.540;-5.510;2023-04-06T06:32:35;6.40;;;3.05;;
72479;SDS011;60503;43.540;-5.510;2023-04-06T06:35:01;5.82;;;3.10;;
72479;SDS011;60503;43.540;-5.510;2023-04-06T06:37:27;7.53;;;2.80;;
72479;SDS011;60503;43.540;-5.510;2023-04-06T06:39:53;6.13;;;2.95;;
72479;SDS011;60503;43.540;-5.510;2023-04-06T06:42:18;4.05;;;2.47;;
72479;SDS011;60503;43.540;-5.510;2023-04-06T06:44:44;9.65;;;2.90;;
72479;SDS011;60503;43.540;-5.510;2023-04-06T06:47:10;7.43;;;2.70;;
72479;SDS011;60503;43.540;-5.510;2023-04-06T06:49:35;6.45;;;2.20;;
72479;SDS011;60503;43.540;-5.510;2023-04-06T06:52:01;3.78;;;2.28;;
72479;SDS011;60503;43.540;-5.510;2023-04-06T06:54:26;3.33;;;2.20;;
72479;SDS011;60503;43.540;-5.510;2023-04-06T06:56:52;4.25;;;2.25;;
72479;SDS011;60503;43.540;-5.510;2023-04-06T06:59:19;10.43;;;2.75;;
72479;SDS011;60503;43.540;-5.510;2023-04-06T07:01:45;6.22;;;2.22;;
72479;SDS011;60503;43.540;-5.510;2023-04-06T07:04:11;3.35;;;2.15;;
72479;SDS011;60503;43.540;-5.510;2023-04-06T07:06:36;4.45;;;2.40;;
72479;SDS011;60503;43.540;-5.510;2023-04-06T07:15:58;5.97;;;2.30;;
72479;SDS011;60503;43.540;-5.510;2023-04-06T07:18:24;3.38;;;2.05;;
72479;SDS011;60503;43.540;-5.510;2023-04-06T07:20:50;3.72;;;2.30;;
72479;SDS011;60503;43.540;-5.510;2023-04-06T07:23:15;6.40;;;2.42;;
72479;SDS011;60503;43.540;-5.510;2023-04-06T07:25:41;6.28;;;2.05;;
72479;SDS011;60503;43.540;-5.510;2023-04-06T07:28:07;5.93;;;2.13;;
72479;SDS011;60503;43.540;-5.510;2023-04-06T07:30:32;5.50;;;2.42;;
72479;SDS011;60503;43.540;-5.510;2023-04-06T07:32:58;5.45;;;2.08;;
72479;SDS011;60503;43.540;-5.510;2023-04-06T07:35:25;4.47;;;2.30;;
72479;SDS011;60503;43.540;-5.510;2023-04-06T07:41:14;5.00;;;2.60;;
72479;SDS011;60503;43.540;-5.510;2023-04-06T07:43:42;6.00;;;2.67;;
72479;SDS011;60503;43.540;-5.510;2023-04-06T07:46:08;4.28;;;2.60;;
72479;SDS011;60503;43.540;-5.510;2023-04-06T07:48:33;8.85;;;2.65;;
72479;SDS011;60503;43.540;-5.510;2023-04-06T07:51:02;8.63;;;3.20;;
72479;SDS011;60503;43.540;-5.510;2023-04-06T07:53:31;5.45;;;2.70;;
72479;SDS011;60503;43.540;-5.510;2023-04-06T07:56:00;6.07;;;3.05;;
72479;SDS011;60503;43.540;-5.510;2023-04-06T07:58:26;6.88;;;3.00;;
72479;SDS011;60503;43.540;-5.510;2023-04-06T08:00:51;7.00;;;2.95;;
72479;SDS011;60503;43.540;-5.510;2023-04-06T08:03:17;6.07;;;3.10;;
72479;SDS011;60503;43.540;-5.510;2023-04-06T08:05:45;6.60;;;3.00;;
72479;SDS011;60503;43.540;-5.510;2023-04-06T08:08:11;6.85;;;3.05;;
72479;SDS011;60503;43.540;-5.510;2023-04-06T08:10:36;8.60;;;3.53;;
72479;SDS011;60503;43.540;-5.510;2023-04-06T08:13:02;5.45;;;3.25;;
72479;SDS011;60503;43.540;-5.510;2023-04-06T08:15:28;6.85;;;2.67;;
72479;SDS011;60503;43.540;-5.510;2023-04-06T08:17:53;6.95;;;3.17;;
72479;SDS011;60503;43.540;-5.510;2023-04-06T08:20:22;7.38;;;3.40;;
72479;SDS011;60503;43.540;-5.510;2023-04-06T08:22:47;9.35;;;4.50;;
72479;SDS011;60503;43.540;-5.510;2023-04-06T08:25:13;7.80;;;3.60;;
72479;SDS011;60503;43.540;-5.510;2023-04-06T08:27:39;8.70;;;3.20;;
72479;SDS011;60503;43.540;-5.510;2023-04-06T08:30:04;6.88;;;3.38;;
72479;SDS011;60503;43.540;-5.510;2023-04-06T08:32:30;9.27;;;3.63;;
72479;SDS011;60503;43.540;-5.510;2023-04-06T08:34:56;11.57;;;3.70;;
72479;SDS011;60503;43.540;-5.510;2023-04-06T08:37:22;11.95;;;3.95;;
72479;SDS011;60503;43.540;-5.510;2023-04-06T08:39:48;13.60;;;3.58;;
72479;SDS011;60503;43.540;-5.510;2023-04-06T08:42:16;12.65;;;4.25;;
72479;SDS011;60503;43.540;-5.510;2023-04-06T08:44:45;6.90;;;3.85;;
72479;SDS011;60503;43.540;-5.510;2023-04-06T08:47:11;8.32;;;3.78;;
72479;SDS011;60503;43.540;-5.510;2023-04-06T08:49:37;15.73;;;4.00;;
72479;SDS011;60503;43.540;-5.510;2023-04-06T08:52:05;10.25;;;3.53;;
72479;SDS011;60503;43.540;-5.510;2023-04-06T08:54:33;12.07;;;4.10;;
72479;SDS011;60503;43.540;-5.510;2023-04-06T08:56:59;9.50;;;3.97;;
72479;SDS011;60503;43.540;-5.510;2023-04-06T08:59:25;7.82;;;3.08;;
72479;SDS011;60503;43.540;-5.510;2023-04-06T09:01:50;8.68;;;2.95;;
72479;SDS011;60503;43.540;-5.510;2023-04-06T09:04:17;8.60;;;3.10;;
72479;SDS011;60503;43.540;-5.510;2023-04-06T09:06:42;8.27;;;3.10;;
72479;SDS011;60503;43.540;-5.510;2023-04-06T09:09:08;6.65;;;2.85;;
72479;SDS011;60503;43.540;-5.510;2023-04-06T09:14:15;7.45;;;3.00;;
72479;SDS011;60503;43.540;-5.510;2023-04-06T09:16:42;9.30;;;3.47;;
72479;SDS011;60503;43.540;-5.510;2023-04-06T09:19:09;11.35;;;2.95;;
72479;SDS011;60503;43.540;-5.510;2023-04-06T09:24:56;7.18;;;3.03;;
72479;SDS011;60503;43.540;-5.510;2023-04-06T09:27:36;13.88;;;3.15;;
72479;SDS011;60503;43.540;-5.510;2023-04-06T09:30:11;11.67;;;3.07;;
72479;SDS011;60503;43.540;-5.510;2023-04-06T09:32:46;10.55;;;3.00;;
72479;SDS011;60503;43.540;-5.510;2023-04-06T09:35:12;10.20;;;3.15;;
72479;SDS011;60503;43.540;-5.510;2023-04-06T09:37:38;10.25;;;3.88;;
72479;SDS011;60503;43.540;-5.510;2023-04-06T09:40:04;8.63;;;3.40;;
72479;SDS011;60503;43.540;-5.510;2023-04-06T09:42:31;10.82;;;3.70;;
72479;SDS011;60503;43.540;-5.510;2023-04-06T09:44:57;10.10;;;3.50;;
72479;SDS011;60503;43.540;-5.510;2023-04-06T09:47:22;8.55;;;3.08;;
72479;SDS011;60503;43.540;-5.510;2023-04-06T09:49:50;7.40;;;2.90;;
72479;SDS011;60503;43.540;-5.510;2023-04-06T09:52:16;13.55;;;3.90;;
72479;SDS011;60503;43.540;-5.510;2023-04-06T09:54:43;11.70;;;4.13;;
72479;SDS011;60503;43.540;-5.510;2023-04-06T09:57:17;16.10;;;3.97;;
72479;SDS011;60503;43.540;-5.510;2023-04-06T10:00:07;10.32;;;3.45;;
72479;SDS011;60503;43.540;-5.510;2023-04-06T10:02:50;12.02;;;3.58;;
72479;SDS011;60503;43.540;-5.510;2023-04-06T10:08:06;8.95;;;3.03;;
72479;SDS011;60503;43.540;-5.510;2023-04-06T10:10:35;9.10;;;2.97;;
72479;SDS011;60503;43.540;-5.510;2023-04-06T10:13:01;9.20;;;3.03;;
72479;SDS011;60503;43.540;-5.510;2023-04-06T10:15:28;11.10;;;3.08;;
72479;SDS011;60503;43.540;-5.510;2023-04-06T10:18:00;10.68;;;2.85;;
72479;SDS011;60503;43.540;-5.510;2023-04-06T10:20:28;13.40;;;3.42;;
72479;SDS011;60503;43.540;-5.510;2023-04-06T10:25:32;8.10;;;2.92;;
72479;SDS011;60503;43.540;-5.510;2023-04-06T10:28:05;5.97;;;2.80;;
72479;SDS011;60503;43.540;-5.510;2023-04-06T10:30:32;9.43;;;3.13;;
72479;SDS011;60503;43.540;-5.510;2023-04-06T10:32:58;7.30;;;2.60;;
72479;SDS011;60503;43.540;-5.510;2023-04-06T10:35:24;9.32;;;3.40;;
72479;SDS011;60503;43.540;-5.510;2023-04-06T10:38:03;7.45;;;2.03;;
72479;SDS011;60503;43.540;-5.510;2023-04-06T10:40:29;8.40;;;2.47;;
72479;SDS011;60503;43.540;-5.510;2023-04-06T10:43:06;7.18;;;2.60;;
72479;SDS011;60503;43.540;-5.510;2023-04-06T10:45:32;5.95;;;2.60;;
72479;SDS011;60503;43.540;-5.510;2023-04-06T10:47:58;9.75;;;2.70;;
72479;SDS011;60503;43.540;-5.510;2023-04-06T10:50:24;8.05;;;2.47;;
72479;SDS011;60503;43.540;-5.510;2023-04-06T10:52:59;10.13;;;2.58;;
72479;SDS011;60503;43.540;-5.510;2023-04-06T10:55:26;6.40;;;2.35;;
72479;SDS011;60503;43.540;-5.510;2023-04-06T10:57:53;6.55;;;2.25;;
72479;SDS011;60503;43.540;-5.510;2023-04-06T11:00:19;7.05;;;2.38;;
72479;SDS011;60503;43.540;-5.510;2023-04-06T11:02:45;4.35;;;2.55;;
72479;SDS011;60503;43.540;-5.510;2023-04-06T11:05:11;6.97;;;2.45;;
72479;SDS011;60503;43.540;-5.510;2023-04-06T11:07:38;5.13;;;2.17;;
72479;SDS011;60503;43.540;-5.510;2023-04-06T11:10:05;8.05;;;2.25;;
72479;SDS011;60503;43.540;-5.510;2023-04-06T11:12:31;9.40;;;2.60;;
72479;SDS011;60503;43.540;-5.510;2023-04-06T11:14:57;6.45;;;2.58;;
72479;SDS011;60503;43.540;-5.510;2023-04-06T11:17:29;5.25;;;2.15;;
72479;SDS011;60503;43.540;-5.510;2023-04-06T11:19:56;6.65;;;1.92;;
72479;SDS011;60503;43.540;-5.510;2023-04-06T11:22:23;7.15;;;2.50;;
72479;SDS011;60503;43.540;-5.510;2023-04-06T11:24:49;7.20;;;2.42;;
72479;SDS011;60503;43.540;-5.510;2023-04-06T11:27:15;6.55;;;2.58;;
72479;SDS011;60503;43.540;-5.510;2023-04-06T11:29:41;4.40;;;2.63;;
72479;SDS011;60503;43.540;-5.510;2023-04-06T11:32:07;5.80;;;2.25;;
72479;SDS011;60503;43.540;-5.510;2023-04-06T11:34:37;4.07;;;2.33;;
72479;SDS011;60503;43.540;-5.510;2023-04-06T11:37:08;8.82;;;2.30;;
72479;SDS011;60503;43.540;-5.510;2023-04-06T11:42:07;4.85;;;2.45;;
72479;SDS011;60503;43.540;-5.510;2023-04-06T11:44:36;5.30;;;2.60;;
72479;SDS011;60503;43.540;-5.510;2023-04-06T11:47:07;4.65;;;2.40;;
72479;SDS011;60503;43.540;-5.510;2023-04-06T11:49:36;4.10;;;2.40;;
72479;SDS011;60503;43.540;-5.510;2023-04-06T11:52:02;6.28;;;2.60;;
72479;SDS011;60503;43.540;-5.510;2023-04-06T11:54:35;6.72;;;2.30;;
72479;SDS011;60503;43.540;-5.510;2023-04-06T11:57:03;7.50;;;2.70;;
72479;SDS011;60503;43.540;-5.510;2023-04-06T11:59:29;9.18;;;2.45;;
72479;SDS011;60503;43.540;-5.510;2023-04-06T12:01:55;7.85;;;2.72;;
72479;SDS011;60503;43.540;-5.510;2023-04-06T12:04:22;3.92;;;2.22;;
72479;SDS011;60503;43.540;-5.510;2023-04-06T12:06:47;5.15;;;2.10;;
72479;SDS011;60503;43.540;-5.510;2023-04-06T12:09:13;7.25;;;2.65;;
72479;SDS011;60503;43.540;-5.510;2023-04-06T12:11:38;4.57;;;2.40;;
72479;SDS011;60503;43.540;-5.510;2023-04-06T12:14:05;3.25;;;2.13;;
72479;SDS011;60503;43.540;-5.510;2023-04-06T12:16:32;4.32;;;2.22;;
72479;SDS011;60503;43.540;-5.510;2023-04-06T12:18:59;6.82;;;2.00;;
72479;SDS011;60503;43.540;-5.510;2023-04-06T12:21:26;5.25;;;2.28;;
72479;SDS011;60503;43.540;-5.510;2023-04-06T12:23:53;6.57;;;2.42;;
72479;SDS011;60503;43.540;-5.510;2023-04-06T12:26:20;6.50;;;2.25;;
72479;SDS011;60503;43.540;-5.510;2023-04-06T12:28:46;7.57;;;2.50;;
72479;SDS011;60503;43.540;-5.510;2023-04-06T12:31:15;7.45;;;2.33;;
72479;SDS011;60503;43.540;-5.510;2023-04-06T12:33:41;4.33;;;2.23;;
72479;SDS011;60503;43.540;-5.510;2023-04-06T12:36:14;6.78;;;2.45;;
72479;SDS011;60503;43.540;-5.510;2023-04-06T12:38:40;11.15;;;2.88;;
72479;SDS011;60503;43.540;-5.510;2023-04-06T12:41:07;4.28;;;2.20;;
72479;SDS011;60503;43.540;-5.510;2023-04-06T12:43:32;10.77;;;2.58;;
72479;SDS011;60503;43.540;-5.510;2023-04-06T12:45:58;4.00;;;2.30;;
72479;SDS011;60503;43.540;-5.510;2023-04-06T12:48:24;6.15;;;2.53;;
72479;SDS011;60503;43.540;-5.510;2023-04-06T12:51:08;6.07;;;2.20;;
72479;SDS011;60503;43.540;-5.510;2023-04-06T12:53:34;7.28;;;2.45;;
72479;SDS011;60503;43.540;-5.510;2023-04-06T12:56:01;6.93;;;2.13;;
72479;SDS011;60503;43.540;-5.510;2023-04-06T12:58:27;8.25;;;2.40;;
72479;SDS011;60503;43.540;-5.510;2023-04-06T13:00:53;7.95;;;2.53;;
72479;SDS011;60503;43.540;-5.510;2023-04-06T13:03:20;8.43;;;2.67;;
72479;SDS011;60503;43.540;-5.510;2023-04-06T13:05:49;5.22;;;2.20;;
72479;SDS011;60503;43.540;-5.510;2023-04-06T13:08:16;8.90;;;2.47;;
72479;SDS011;60503;43.540;-5.510;2023-04-06T13:10:46;3.85;;;2.60;;
72479;SDS011;60503;43.540;-5.510;2023-04-06T13:13:13;5.78;;;2.60;;
72479;SDS011;60503;43.540;-5.510;2023-04-06T13:15:39;6.18;;;2.33;;
72479;SDS011;60503;43.540;-5.510;2023-04-06T13:18:05;5.60;;;2.50;;
72479;SDS011;60503;43.540;-5.510;2023-04-06T13:20:31;4.78;;;2.10;;
72479;SDS011;60503;43.540;-5.510;2023-04-06T13:26:01;7.88;;;2.20;;
72479;SDS011;60503;43.540;-5.510;2023-04-06T13:28:28;5.75;;;2.20;;
72479;SDS011;60503;43.540;-5.510;2023-04-06T13:30:55;7.63;;;2.10;;
72479;SDS011;60503;43.540;-5.510;2023-04-06T13:33:21;10.27;;;2.10;;
72479;SDS011;60503;43.540;-5.510;2023-04-06T13:42:17;7.85;;;2.05;;
72479;SDS011;60503;43.540;-5.510;2023-04-06T13:44:43;5.15;;;1.98;;
72479;SDS011;60503;43.540;-5.510;2023-04-06T13:47:11;3.15;;;1.55;;
72479;SDS011;60503;43.540;-5.510;2023-04-06T13:56:21;2.45;;;1.20;;
72479;SDS011;60503;43.540;-5.510;2023-04-06T13:58:46;2.08;;;1.45;;
72479;SDS011;60503;43.540;-5.510;2023-04-06T14:04:34;7.93;;;1.55;;
72479;SDS011;60503;43.540;-5.510;2023-04-06T14:07:00;4.40;;;1.50;;
72479;SDS011;60503;43.540;-5.510;2023-04-06T14:09:27;4.97;;;1.67;;
72479;SDS011;60503;43.540;-5.510;2023-04-06T14:15:14;2.58;;;1.40;;
72479;SDS011;60503;43.540;-5.510;2023-04-06T14:17:40;4.45;;;1.58;;
72479;SDS011;60503;43.540;-5.510;2023-04-06T14:20:06;3.65;;;1.58;;
72479;SDS011;60503;43.540;-5.510;2023-04-06T14:22:32;7.28;;;1.60;;
72479;SDS011;60503;43.540;-5.510;2023-04-06T14:24:57;2.80;;;1.60;;
72479;SDS011;60503;43.540;-5.510;2023-04-06T14:27:23;4.55;;;1.80;;
72479;SDS011;60503;43.540;-5.510;2023-04-06T14:29:50;7.75;;;1.73;;
72479;SDS011;60503;43.540;-5.510;2023-04-06T14:32:16;2.17;;;1.50;;
72479;SDS011;60503;43.540;-5.510;2023-04-06T14:34:42;4.95;;;1.60;;
72479;SDS011;60503;43.540;-5.510;2023-04-06T14:37:07;2.50;;;1.48;;
72479;SDS011;60503;43.540;-5.510;2023-04-06T14:39:33;6.05;;;1.60;;
72479;SDS011;60503;43.540;-5.510;2023-04-06T14:41:59;4.55;;;1.55;;
72479;SDS011;60503;43.540;-5.510;2023-04-06T14:44:24;2.20;;;1.50;;
72479;SDS011;60503;43.540;-5.510;2023-04-06T14:46:50;5.03;;;1.60;;
72479;SDS011;60503;43.540;-5.510;2023-04-06T14:49:15;1.92;;;1.30;;
72479;SDS011;60503;43.540;-5.510;2023-04-06T14:51:41;4.20;;;1.63;;
72479;SDS011;60503;43.540;-5.510;2023-04-06T14:54:07;4.72;;;1.67;;
72479;SDS011;60503;43.540;-5.510;2023-04-06T14:56:32;3.08;;;1.52;;
72479;SDS011;60503;43.540;-5.510;2023-04-06T14:58:58;6.35;;;1.63;;
72479;SDS011;60503;43.540;-5.510;2023-04-06T15:01:24;3.95;;;1.63;;
72479;SDS011;60503;43.540;-5.510;2023-04-06T15:03:50;3.60;;;1.48;;
72479;SDS011;60503;43.540;-5.510;2023-04-06T15:06:17;4.43;;;1.52;;
72479;SDS011;60503;43.540;-5.510;2023-04-06T15:08:44;5.07;;;1.40;;
72479;SDS011;60503;43.540;-5.510;2023-04-06T15:11:11;4.53;;;1.67;;
72479;SDS011;60503;43.540;-5.510;2023-04-06T15:13:38;7.47;;;1.70;;
72479;SDS011;60503;43.540;-5.510;2023-04-06T15:16:05;6.53;;;1.80;;
72479;SDS011;60503;43.540;-5.510;2023-04-06T15:18:31;4.28;;;1.70;;
72479;SDS011;60503;43.540;-5.510;2023-04-06T15:20:57;3.97;;;1.80;;
72479;SDS011;60503;43.540;-5.510;2023-04-06T15:23:25;2.80;;;1.55;;